sensor_id;sensor_type;location;lat;lon;timestamp;P1;durP1;ratioP1;P2;durP2;ratioP2
44810;SDS011;30526;52.184;4.476;2022-08-19T00:01:15;7.65;;;5.28;;
44810;SDS011;30526;52.184;4.476;2022-08-19T00:03:41;11.10;;;5.38;;
44810;SDS011;30526;52.184;4.476;2022-08-19T00:06:07;12.23;;;5.47;;
44810;SDS011;30526;52.184;4.476;2022-08-19T00:08:33;14.57;;;5.80;;
44810;SDS011;30526;52.184;4.476;2022-08-19T00:10:59;8.93;;;5.28;;
44810;SDS011;30526;52.184;4.476;2022-08-19T00:13:25;8.30;;;5.47;;
44810;SDS011;30526;52.184;4.476;2022-08-19T00:15:53;7.07;;;5.50;;
44810;SDS011;30526;52.184;4.476;2022-08-19T00:18:19;11.80;;;5.95;;
44810;SDS011;30526;52.184;4.476;2022-08-19T00:20:45;9.73;;;5.20;;
44810;SDS011;30526;52.184;4.476;2022-08-19T00:23:11;14.13;;;6.43;;
44810;SDS011;30526;52.184;4.476;2022-08-19T00:25:38;13.85;;;5.80;;
44810;SDS011;30526;52.184;4.476;2022-08-19T00:28:04;11.85;;;5.93;;
44810;SDS011;30526;52.184;4.476;2022-08-19T00:30:30;8.60;;;5.53;;
44810;SDS011;30526;52.184;4.476;2022-08-19T00:32:56;8.70;;;5.88;;
44810;SDS011;30526;52.184;4.476;2022-08-19T00:35:23;6.20;;;4.03;;
44810;SDS011;30526;52.184;4.476;2022-08-19T00:37:52;8.40;;;5.15;;
44810;SDS011;30526;52.184;4.476;2022-08-19T00:40:18;9.52;;;5.43;;
44810;SDS011;30526;52.184;4.476;2022-08-19T00:42:45;8.95;;;5.55;;
44810;SDS011;30526;52.184;4.476;2022-08-19T00:45:12;7.07;;;4.68;;
44810;SDS011;30526;52.184;4.476;2022-08-19T00:47:39;7.75;;;4.57;;
44810;SDS011;30526;52.184;4.476;2022-08-19T00:50:06;6.90;;;4.85;;
44810;SDS011;30526;52.184;4.476;2022-08-19T00:52:34;11.38;;;5.03;;
44810;SDS011;30526;52.184;4.476;2022-08-19T00:55:03;12.45;;;6.00;;
44810;SDS011;30526;52.184;4.476;2022-08-19T00:57:31;10.13;;;5.47;;
44810;SDS011;30526;52.184;4.476;2022-08-19T00:59:58;9.20;;;5.82;;
44810;SDS011;30526;52.184;4.476;2022-08-19T01:02:27;8.57;;;5.70;;
44810;SDS011;30526;52.184;4.476;2022-08-19T01:04:53;9.77;;;5.27;;
44810;SDS011;30526;52.184;4.476;2022-08-19T01:07:19;11.98;;;5.72;;
44810;SDS011;30526;52.184;4.476;2022-08-19T01:09:46;10.20;;;5.45;;
44810;SDS011;30526;52.184;4.476;2022-08-19T01:12:12;9.27;;;5.67;;
44810;SDS011;30526;52.184;4.476;2022-08-19T01:14:38;8.05;;;5.50;;
44810;SDS011;30526;52.184;4.476;2022-08-19T01:17:05;7.80;;;4.95;;
44810;SDS011;30526;52.184;4.476;2022-08-19T01:19:36;9.63;;;5.60;;
44810;SDS011;30526;52.184;4.476;2022-08-19T01:22:08;7.80;;;5.10;;
44810;SDS011;30526;52.184;4.476;2022-08-19T01:24:36;6.15;;;4.88;;
44810;SDS011;30526;52.184;4.476;2022-08-19T01:27:05;8.77;;;4.63;;
44810;SDS011;30526;52.184;4.476;2022-08-19T01:29:32;7.75;;;5.45;;
44810;SDS011;30526;52.184;4.476;2022-08-19T01:31:58;7.43;;;5.67;;
44810;SDS011;30526;52.184;4.476;2022-08-19T01:34:25;10.00;;;5.85;;
44810;SDS011;30526;52.184;4.476;2022-08-19T01:36:51;8.18;;;5.65;;
44810;SDS011;30526;52.184;4.476;2022-08-19T01:39:18;9.60;;;5.57;;
44810;SDS011;30526;52.184;4.476;2022-08-19T01:41:45;12.15;;;5.07;;
44810;SDS011;30526;52.184;4.476;2022-08-19T01:44:11;8.30;;;5.93;;
44810;SDS011;30526;52.184;4.476;2022-08-19T01:46:37;11.48;;;5.53;;
44810;SDS011;30526;52.184;4.476;2022-08-19T01:49:04;12.57;;;6.18;;
44810;SDS011;30526;52.184;4.476;2022-08-19T01:51:30;7.20;;;5.65;;
44810;SDS011;30526;52.184;4.476;2022-08-19T01:53:57;7.88;;;5.80;;
44810;SDS011;30526;52.184;4.476;2022-08-19T01:56:23;11.80;;;6.03;;
44810;SDS011;30526;52.184;4.476;2022-08-19T01:58:50;9.13;;;6.47;;
44810;SDS011;30526;52.184;4.476;2022-08-19T02:01:17;12.07;;;6.70;;
44810;SDS011;30526;52.184;4.476;2022-08-19T02:03:43;11.32;;;7.70;;
44810;SDS011;30526;52.184;4.476;2022-08-19T02:06:10;8.15;;;5.43;;
44810;SDS011;30526;52.184;4.476;2022-08-19T02:08:37;9.18;;;6.93;;
44810;SDS011;30526;52.184;4.476;2022-08-19T02:11:04;12.65;;;7.70;;
44810;SDS011;30526;52.184;4.476;2022-08-19T02:13:31;13.00;;;8.10;;
44810;SDS011;30526;52.184;4.476;2022-08-19T02:15:57;10.82;;;7.13;;
44810;SDS011;30526;52.184;4.476;2022-08-19T02:18:23;13.30;;;7.32;;
44810;SDS011;30526;52.184;4.476;2022-08-19T02:20:49;13.15;;;7.47;;
44810;SDS011;30526;52.184;4.476;2022-08-19T02:23:16;15.52;;;7.47;;
44810;SDS011;30526;52.184;4.476;2022-08-19T02:25:43;13.43;;;8.37;;
44810;SDS011;30526;52.184;4.476;2022-08-19T02:28:09;10.85;;;6.40;;
44810;SDS011;30526;52.184;4.476;2022-08-19T02:30:36;12.50;;;6.57;;
44810;SDS011;30526;52.184;4.476;2022-08-19T02:33:03;16.23;;;10.07;;
44810;SDS011;30526;52.184;4.476;2022-08-19T02:35:29;14.43;;;10.35;;
44810;SDS011;30526;52.184;4.476;2022-08-19T02:37:55;15.45;;;10.57;;
44810;SDS011;30526;52.184;4.476;2022-08-19T02:40:40;21.33;;;13.18;;
44810;SDS011;30526;52.184;4.476;2022-08-19T02:43:07;24.67;;;14.80;;
44810;SDS011;30526;52.184;4.476;2022-08-19T02:45:37;28.27;;;14.90;;
44810;SDS011;30526;52.184;4.476;2022-08-19T02:48:04;27.23;;;15.52;;
44810;SDS011;30526;52.184;4.476;2022-08-19T02:50:31;31.13;;;19.58;;
44810;SDS011;30526;52.184;4.476;2022-08-19T02:52:57;32.53;;;16.90;;
44810;SDS011;30526;52.184;4.476;2022-08-19T02:55:23;37.63;;;21.80;;
44810;SDS011;30526;52.184;4.476;2022-08-19T02:57:49;43.80;;;22.85;;
44810;SDS011;30526;52.184;4.476;2022-08-19T03:00:16;51.13;;;25.52;;
44810;SDS011;30526;52.184;4.476;2022-08-19T03:02:42;46.65;;;24.35;;
44810;SDS011;30526;52.184;4.476;2022-08-19T03:05:09;56.55;;;25.60;;
44810;SDS011;30526;52.184;4.476;2022-08-19T03:07:35;38.30;;;19.05;;
44810;SDS011;30526;52.184;4.476;2022-08-19T03:10:02;43.75;;;24.38;;
44810;SDS011;30526;52.184;4.476;2022-08-19T03:12:28;51.70;;;25.17;;
44810;SDS011;30526;52.184;4.476;2022-08-19T03:14:54;45.97;;;23.80;;
44810;SDS011;30526;52.184;4.476;2022-08-19T03:17:20;41.08;;;22.52;;
44810;SDS011;30526;52.184;4.476;2022-08-19T03:19:46;54.03;;;25.17;;
44810;SDS011;30526;52.184;4.476;2022-08-19T03:22:12;47.65;;;24.75;;
44810;SDS011;30526;52.184;4.476;2022-08-19T03:24:39;44.50;;;23.90;;
44810;SDS011;30526;52.184;4.476;2022-08-19T03:27:05;51.40;;;24.60;;
44810;SDS011;30526;52.184;4.476;2022-08-19T03:29:31;53.90;;;24.60;;
44810;SDS011;30526;52.184;4.476;2022-08-19T03:31:59;49.20;;;24.57;;
44810;SDS011;30526;52.184;4.476;2022-08-19T03:34:26;54.97;;;24.92;;
44810;SDS011;30526;52.184;4.476;2022-08-19T03:36:53;52.80;;;23.45;;
44810;SDS011;30526;52.184;4.476;2022-08-19T03:39:20;46.08;;;23.08;;
44810;SDS011;30526;52.184;4.476;2022-08-19T03:41:47;46.53;;;21.90;;
44810;SDS011;30526;52.184;4.476;2022-08-19T03:44:16;48.90;;;22.42;;
44810;SDS011;30526;52.184;4.476;2022-08-19T03:46:42;47.33;;;22.90;;
44810;SDS011;30526;52.184;4.476;2022-08-19T03:49:08;45.35;;;23.00;;
44810;SDS011;30526;52.184;4.476;2022-08-19T03:51:36;44.58;;;23.08;;
44810;SDS011;30526;52.184;4.476;2022-08-19T03:54:05;45.67;;;23.05;;
44810;SDS011;30526;52.184;4.476;2022-08-19T03:56:32;53.35;;;24.10;;
44810;SDS011;30526;52.184;4.476;2022-08-19T03:58:59;42.03;;;23.20;;
44810;SDS011;30526;52.184;4.476;2022-08-19T04:01:26;50.80;;;25.60;;
44810;SDS011;30526;52.184;4.476;2022-08-19T04:03:53;34.92;;;17.13;;
44810;SDS011;30526;52.184;4.476;2022-08-19T04:06:21;52.63;;;23.63;;
44810;SDS011;30526;52.184;4.476;2022-08-19T04:08:48;54.13;;;24.70;;
44810;SDS011;30526;52.184;4.476;2022-08-19T04:11:15;48.00;;;24.15;;
44810;SDS011;30526;52.184;4.476;2022-08-19T04:16:09;55.90;;;26.13;;
44810;SDS011;30526;52.184;4.476;2022-08-19T04:18:36;57.83;;;26.83;;
44810;SDS011;30526;52.184;4.476;2022-08-19T04:21:03;53.38;;;27.35;;
44810;SDS011;30526;52.184;4.476;2022-08-19T04:23:29;53.97;;;28.48;;
44810;SDS011;30526;52.184;4.476;2022-08-19T04:25:56;56.85;;;27.00;;
44810;SDS011;30526;52.184;4.476;2022-08-19T04:28:22;59.17;;;27.10;;
44810;SDS011;30526;52.184;4.476;2022-08-19T04:30:50;53.10;;;27.07;;
44810;SDS011;30526;52.184;4.476;2022-08-19T04:33:17;61.05;;;27.83;;
44810;SDS011;30526;52.184;4.476;2022-08-19T04:35:45;38.70;;;20.45;;
44810;SDS011;30526;52.184;4.476;2022-08-19T04:38:12;51.22;;;26.40;;
44810;SDS011;30526;52.184;4.476;2022-08-19T04:40:45;43.00;;;19.92;;
44810;SDS011;30526;52.184;4.476;2022-08-19T04:43:30;53.28;;;27.50;;
44810;SDS011;30526;52.184;4.476;2022-08-19T04:45:57;56.40;;;28.37;;
44810;SDS011;30526;52.184;4.476;2022-08-19T04:48:23;55.30;;;28.63;;
44810;SDS011;30526;52.184;4.476;2022-08-19T04:50:53;60.85;;;31.08;;
44810;SDS011;30526;52.184;4.476;2022-08-19T04:53:23;61.22;;;30.42;;
44810;SDS011;30526;52.184;4.476;2022-08-19T04:55:50;62.13;;;30.85;;
44810;SDS011;30526;52.184;4.476;2022-08-19T04:58:16;71.43;;;31.70;;
44810;SDS011;30526;52.184;4.476;2022-08-19T05:00:42;71.05;;;31.42;;
44810;SDS011;30526;52.184;4.476;2022-08-19T05:03:08;71.22;;;34.47;;
44810;SDS011;30526;52.184;4.476;2022-08-19T05:05:39;68.90;;;32.65;;
44810;SDS011;30526;52.184;4.476;2022-08-19T05:08:05;75.55;;;35.85;;
44810;SDS011;30526;52.184;4.476;2022-08-19T05:10:34;71.97;;;34.40;;
44810;SDS011;30526;52.184;4.476;2022-08-19T05:13:00;79.50;;;35.47;;
44810;SDS011;30526;52.184;4.476;2022-08-19T05:15:26;76.25;;;35.80;;
44810;SDS011;30526;52.184;4.476;2022-08-19T05:17:52;79.78;;;35.10;;
44810;SDS011;30526;52.184;4.476;2022-08-19T05:20:40;75.07;;;33.83;;
44810;SDS011;30526;52.184;4.476;2022-08-19T05:23:24;81.85;;;35.83;;
44810;SDS011;30526;52.184;4.476;2022-08-19T05:25:52;69.93;;;33.17;;
44810;SDS011;30526;52.184;4.476;2022-08-19T05:28:19;80.40;;;35.83;;
44810;SDS011;30526;52.184;4.476;2022-08-19T05:30:45;56.08;;;23.92;;
44810;SDS011;30526;52.184;4.476;2022-08-19T05:35:39;78.15;;;33.42;;
44810;SDS011;30526;52.184;4.476;2022-08-19T05:38:06;81.18;;;35.38;;
44810;SDS011;30526;52.184;4.476;2022-08-19T05:40:37;55.13;;;25.55;;
44810;SDS011;30526;52.184;4.476;2022-08-19T05:43:03;68.00;;;31.15;;
44810;SDS011;30526;52.184;4.476;2022-08-19T05:45:30;61.35;;;30.27;;
44810;SDS011;30526;52.184;4.476;2022-08-19T05:47:56;63.13;;;30.60;;
44810;SDS011;30526;52.184;4.476;2022-08-19T05:50:23;65.80;;;28.40;;
44810;SDS011;30526;52.184;4.476;2022-08-19T05:52:50;69.53;;;32.67;;
44810;SDS011;30526;52.184;4.476;2022-08-19T05:55:16;61.78;;;29.48;;
44810;SDS011;30526;52.184;4.476;2022-08-19T05:57:45;68.20;;;34.80;;
44810;SDS011;30526;52.184;4.476;2022-08-19T06:00:11;65.57;;;31.63;;
44810;SDS011;30526;52.184;4.476;2022-08-19T06:02:37;70.55;;;33.00;;
44810;SDS011;30526;52.184;4.476;2022-08-19T06:05:04;60.28;;;32.10;;
44810;SDS011;30526;52.184;4.476;2022-08-19T06:07:33;58.30;;;31.00;;
44810;SDS011;30526;52.184;4.476;2022-08-19T06:09:59;58.78;;;29.13;;
44810;SDS011;30526;52.184;4.476;2022-08-19T06:12:25;62.15;;;30.90;;
44810;SDS011;30526;52.184;4.476;2022-08-19T06:14:55;67.53;;;31.45;;
44810;SDS011;30526;52.184;4.476;2022-08-19T06:17:21;61.47;;;30.33;;
44810;SDS011;30526;52.184;4.476;2022-08-19T06:19:49;60.35;;;29.88;;
44810;SDS011;30526;52.184;4.476;2022-08-19T06:22:15;63.75;;;28.52;;
44810;SDS011;30526;52.184;4.476;2022-08-19T06:24:42;59.50;;;29.65;;
44810;SDS011;30526;52.184;4.476;2022-08-19T06:27:08;57.13;;;25.75;;
44810;SDS011;30526;52.184;4.476;2022-08-19T06:29:34;63.88;;;28.70;;
44810;SDS011;30526;52.184;4.476;2022-08-19T06:32:01;55.90;;;27.70;;
44810;SDS011;30526;52.184;4.476;2022-08-19T06:34:29;60.90;;;29.15;;
44810;SDS011;30526;52.184;4.476;2022-08-19T06:39:23;47.65;;;24.80;;
44810;SDS011;30526;52.184;4.476;2022-08-19T06:41:50;62.45;;;27.75;;
44810;SDS011;30526;52.184;4.476;2022-08-19T06:44:17;53.75;;;25.83;;
44810;SDS011;30526;52.184;4.476;2022-08-19T06:46:44;48.28;;;24.63;;
44810;SDS011;30526;52.184;4.476;2022-08-19T06:49:10;47.15;;;24.70;;
44810;SDS011;30526;52.184;4.476;2022-08-19T06:51:39;48.40;;;23.00;;
44810;SDS011;30526;52.184;4.476;2022-08-19T06:54:05;42.73;;;22.40;;
44810;SDS011;30526;52.184;4.476;2022-08-19T06:56:31;48.80;;;22.23;;
44810;SDS011;30526;52.184;4.476;2022-08-19T06:59:04;45.72;;;21.58;;
44810;SDS011;30526;52.184;4.476;2022-08-19T07:01:34;35.60;;;20.30;;
44810;SDS011;30526;52.184;4.476;2022-08-19T07:04:00;37.65;;;19.80;;
44810;SDS011;30526;52.184;4.476;2022-08-19T07:06:27;32.40;;;14.77;;
44810;SDS011;30526;52.184;4.476;2022-08-19T07:08:55;36.97;;;18.52;;
44810;SDS011;30526;52.184;4.476;2022-08-19T07:13:49;27.83;;;14.43;;
44810;SDS011;30526;52.184;4.476;2022-08-19T07:16:17;33.10;;;15.45;;
44810;SDS011;30526;52.184;4.476;2022-08-19T07:18:44;32.15;;;15.73;;
44810;SDS011;30526;52.184;4.476;2022-08-19T07:21:12;29.60;;;14.13;;
44810;SDS011;30526;52.184;4.476;2022-08-19T07:23:38;27.48;;;12.50;;
44810;SDS011;30526;52.184;4.476;2022-08-19T07:26:26;24.75;;;11.63;;
44810;SDS011;30526;52.184;4.476;2022-08-19T07:28:50;22.00;;;9.20;;
44810;SDS011;30526;52.184;4.476;2022-08-19T07:31:19;26.38;;;10.82;;
44810;SDS011;30526;52.184;4.476;2022-08-19T07:33:46;20.33;;;9.68;;
44810;SDS011;30526;52.184;4.476;2022-08-19T07:36:14;20.55;;;8.63;;
44810;SDS011;30526;52.184;4.476;2022-08-19T07:38:42;24.20;;;8.10;;
44810;SDS011;30526;52.184;4.476;2022-08-19T07:41:09;10.50;;;6.40;;
44810;SDS011;30526;52.184;4.476;2022-08-19T07:43:36;16.08;;;6.80;;
44810;SDS011;30526;52.184;4.476;2022-08-19T07:46:02;17.53;;;6.73;;
44810;SDS011;30526;52.184;4.476;2022-08-19T07:48:28;13.63;;;6.10;;
44810;SDS011;30526;52.184;4.476;2022-08-19T07:50:55;18.17;;;6.88;;
44810;SDS011;30526;52.184;4.476;2022-08-19T07:53:22;13.25;;;6.05;;
44810;SDS011;30526;52.184;4.476;2022-08-19T07:55:48;11.75;;;5.80;;
44810;SDS011;30526;52.184;4.476;2022-08-19T07:58:15;15.68;;;6.00;;
44810;SDS011;30526;52.184;4.476;2022-08-19T08:00:43;14.73;;;5.63;;
44810;SDS011;30526;52.184;4.476;2022-08-19T08:03:12;11.50;;;5.88;;
44810;SDS011;30526;52.184;4.476;2022-08-19T08:05:38;12.93;;;6.32;;
44810;SDS011;30526;52.184;4.476;2022-08-19T08:08:23;18.30;;;7.25;;
44810;SDS011;30526;52.184;4.476;2022-08-19T08:11:08;14.50;;;6.95;;
44810;SDS011;30526;52.184;4.476;2022-08-19T08:13:35;16.77;;;5.90;;
44810;SDS011;30526;52.184;4.476;2022-08-19T08:16:01;14.50;;;6.55;;
44810;SDS011;30526;52.184;4.476;2022-08-19T08:18:28;9.98;;;6.53;;
44810;SDS011;30526;52.184;4.476;2022-08-19T08:20:54;16.15;;;6.20;;
44810;SDS011;30526;52.184;4.476;2022-08-19T08:23:20;17.40;;;6.40;;
44810;SDS011;30526;52.184;4.476;2022-08-19T08:25:57;11.05;;;5.85;;
44810;SDS011;30526;52.184;4.476;2022-08-19T08:28:24;11.30;;;5.40;;
44810;SDS011;30526;52.184;4.476;2022-08-19T08:30:50;10.15;;;6.05;;
44810;SDS011;30526;52.184;4.476;2022-08-19T08:33:17;16.93;;;5.90;;
44810;SDS011;30526;52.184;4.476;2022-08-19T08:38:10;16.13;;;5.70;;
44810;SDS011;30526;52.184;4.476;2022-08-19T08:40:47;10.13;;;5.43;;
44810;SDS011;30526;52.184;4.476;2022-08-19T08:45:47;10.70;;;5.07;;
44810;SDS011;30526;52.184;4.476;2022-08-19T08:48:49;11.27;;;5.18;;
44810;SDS011;30526;52.184;4.476;2022-08-19T08:51:09;12.55;;;5.25;;
44810;SDS011;30526;52.184;4.476;2022-08-19T08:53:36;15.52;;;5.35;;
44810;SDS011;30526;52.184;4.476;2022-08-19T08:56:03;13.82;;;5.53;;
44810;SDS011;30526;52.184;4.476;2022-08-19T08:58:36;15.77;;;5.35;;
44810;SDS011;30526;52.184;4.476;2022-08-19T09:01:08;14.55;;;5.43;;
44810;SDS011;30526;52.184;4.476;2022-08-19T09:03:36;15.07;;;5.28;;
44810;SDS011;30526;52.184;4.476;2022-08-19T09:06:03;13.68;;;5.38;;
44810;SDS011;30526;52.184;4.476;2022-08-19T09:11:00;12.85;;;5.10;;
44810;SDS011;30526;52.184;4.476;2022-08-19T09:16:05;13.32;;;4.45;;
44810;SDS011;30526;52.184;4.476;2022-08-19T09:21:06;11.32;;;4.65;;
44810;SDS011;30526;52.184;4.476;2022-08-19T09:23:34;7.55;;;4.03;;
44810;SDS011;30526;52.184;4.476;2022-08-19T09:26:00;6.93;;;3.58;;
44810;SDS011;30526;52.184;4.476;2022-08-19T09:28:26;11.07;;;4.05;;
44810;SDS011;30526;52.184;4.476;2022-08-19T09:30:53;6.18;;;3.47;;
44810;SDS011;30526;52.184;4.476;2022-08-19T09:33:19;7.47;;;3.45;;
44810;SDS011;30526;52.184;4.476;2022-08-19T09:35:45;11.18;;;3.45;;
44810;SDS011;30526;52.184;4.476;2022-08-19T09:38:11;12.40;;;3.55;;
44810;SDS011;30526;52.184;4.476;2022-08-19T09:40:37;11.07;;;3.80;;
44810;SDS011;30526;52.184;4.476;2022-08-19T09:43:03;8.15;;;3.50;;
44810;SDS011;30526;52.184;4.476;2022-08-19T09:45:30;8.88;;;3.63;;
44810;SDS011;30526;52.184;4.476;2022-08-19T09:47:56;10.25;;;3.63;;
44810;SDS011;30526;52.184;4.476;2022-08-19T09:50:22;9.00;;;3.05;;
44810;SDS011;30526;52.184;4.476;2022-08-19T09:52:49;11.18;;;3.38;;
44810;SDS011;30526;52.184;4.476;2022-08-19T09:55:17;12.30;;;3.35;;
44810;SDS011;30526;52.184;4.476;2022-08-19T09:57:43;12.60;;;3.22;;
44810;SDS011;30526;52.184;4.476;2022-08-19T10:00:09;6.35;;;2.78;;
44810;SDS011;30526;52.184;4.476;2022-08-19T10:02:35;6.18;;;3.38;;
44810;SDS011;30526;52.184;4.476;2022-08-19T10:05:01;7.70;;;3.25;;
44810;SDS011;30526;52.184;4.476;2022-08-19T10:07:46;6.03;;;3.17;;
44810;SDS011;30526;52.184;4.476;2022-08-19T10:10:12;9.73;;;3.20;;
44810;SDS011;30526;52.184;4.476;2022-08-19T10:12:38;9.23;;;2.88;;
44810;SDS011;30526;52.184;4.476;2022-08-19T10:15:05;11.73;;;3.70;;
44810;SDS011;30526;52.184;4.476;2022-08-19T10:17:31;9.25;;;3.60;;
44810;SDS011;30526;52.184;4.476;2022-08-19T10:19:59;8.15;;;2.80;;
44810;SDS011;30526;52.184;4.476;2022-08-19T10:22:28;8.00;;;3.30;;
44810;SDS011;30526;52.184;4.476;2022-08-19T10:24:54;10.25;;;4.07;;
44810;SDS011;30526;52.184;4.476;2022-08-19T10:27:21;7.88;;;3.53;;
44810;SDS011;30526;52.184;4.476;2022-08-19T10:29:47;10.50;;;3.47;;
44810;SDS011;30526;52.184;4.476;2022-08-19T10:32:13;6.55;;;2.90;;
44810;SDS011;30526;52.184;4.476;2022-08-19T10:34:41;10.67;;;2.90;;
44810;SDS011;30526;52.184;4.476;2022-08-19T10:37:07;6.85;;;2.78;;
44810;SDS011;30526;52.184;4.476;2022-08-19T10:39:34;8.63;;;2.80;;
44810;SDS011;30526;52.184;4.476;2022-08-19T10:42:07;7.63;;;2.50;;
44810;SDS011;30526;52.184;4.476;2022-08-19T10:44:35;6.65;;;2.45;;
44810;SDS011;30526;52.184;4.476;2022-08-19T10:47:01;7.70;;;2.80;;
44810;SDS011;30526;52.184;4.476;2022-08-19T10:49:27;9.87;;;2.90;;
44810;SDS011;30526;52.184;4.476;2022-08-19T10:51:54;5.70;;;2.80;;
44810;SDS011;30526;52.184;4.476;2022-08-19T10:54:39;9.38;;;2.35;;
44810;SDS011;30526;52.184;4.476;2022-08-19T10:57:24;5.13;;;2.20;;
44810;SDS011;30526;52.184;4.476;2022-08-19T10:59:54;6.45;;;2.40;;
44810;SDS011;30526;52.184;4.476;2022-08-19T11:02:21;7.75;;;2.17;;
44810;SDS011;30526;52.184;4.476;2022-08-19T11:04:47;3.33;;;2.00;;
44810;SDS011;30526;52.184;4.476;2022-08-19T11:07:15;5.07;;;2.33;;
44810;SDS011;30526;52.184;4.476;2022-08-19T11:09:41;5.50;;;2.60;;
44810;SDS011;30526;52.184;4.476;2022-08-19T11:12:08;3.72;;;2.00;;
44810;SDS011;30526;52.184;4.476;2022-08-19T11:14:34;8.90;;;2.05;;
44810;SDS011;30526;52.184;4.476;2022-08-19T11:17:02;4.45;;;2.13;;
44810;SDS011;30526;52.184;4.476;2022-08-19T11:19:28;8.48;;;2.05;;
44810;SDS011;30526;52.184;4.476;2022-08-19T11:21:54;6.78;;;2.13;;
44810;SDS011;30526;52.184;4.476;2022-08-19T11:24:21;3.15;;;1.83;;
44810;SDS011;30526;52.184;4.476;2022-08-19T11:29:17;6.28;;;2.03;;
44810;SDS011;30526;52.184;4.476;2022-08-19T11:31:45;10.75;;;2.17;;
44810;SDS011;30526;52.184;4.476;2022-08-19T11:34:12;7.30;;;1.90;;
44810;SDS011;30526;52.184;4.476;2022-08-19T11:36:40;3.42;;;1.90;;
44810;SDS011;30526;52.184;4.476;2022-08-19T11:39:08;5.85;;;2.00;;
44810;SDS011;30526;52.184;4.476;2022-08-19T11:41:34;6.10;;;1.65;;
44810;SDS011;30526;52.184;4.476;2022-08-19T11:44:00;5.38;;;1.90;;
44810;SDS011;30526;52.184;4.476;2022-08-19T11:46:27;2.20;;;1.70;;
44810;SDS011;30526;52.184;4.476;2022-08-19T11:48:54;5.40;;;2.10;;
44810;SDS011;30526;52.184;4.476;2022-08-19T11:51:21;3.53;;;1.53;;
44810;SDS011;30526;52.184;4.476;2022-08-19T11:53:49;4.38;;;1.70;;
44810;SDS011;30526;52.184;4.476;2022-08-19T11:56:16;3.92;;;1.92;;
44810;SDS011;30526;52.184;4.476;2022-08-19T11:58:42;4.60;;;1.85;;
44810;SDS011;30526;52.184;4.476;2022-08-19T12:01:09;5.13;;;1.70;;
44810;SDS011;30526;52.184;4.476;2022-08-19T12:03:36;2.67;;;1.70;;
44810;SDS011;30526;52.184;4.476;2022-08-19T12:06:04;4.70;;;1.80;;
44810;SDS011;30526;52.184;4.476;2022-08-19T12:08:30;4.88;;;1.73;;
44810;SDS011;30526;52.184;4.476;2022-08-19T12:10:56;3.38;;;1.55;;
44810;SDS011;30526;52.184;4.476;2022-08-19T12:13:22;3.70;;;1.70;;
44810;SDS011;30526;52.184;4.476;2022-08-19T12:15:49;7.47;;;2.10;;
44810;SDS011;30526;52.184;4.476;2022-08-19T12:18:15;4.68;;;1.98;;
44810;SDS011;30526;52.184;4.476;2022-08-19T12:20:41;4.82;;;1.98;;
44810;SDS011;30526;52.184;4.476;2022-08-19T12:23:08;4.22;;;1.60;;
44810;SDS011;30526;52.184;4.476;2022-08-19T12:25:35;6.93;;;1.92;;
44810;SDS011;30526;52.184;4.476;2022-08-19T12:28:01;2.75;;;1.58;;
44810;SDS011;30526;52.184;4.476;2022-08-19T12:30:27;2.38;;;1.77;;
44810;SDS011;30526;52.184;4.476;2022-08-19T12:32:53;4.50;;;1.77;;
44810;SDS011;30526;52.184;4.476;2022-08-19T12:35:19;2.92;;;1.45;;
44810;SDS011;30526;52.184;4.476;2022-08-19T12:37:46;3.80;;;1.20;;
44810;SDS011;30526;52.184;4.476;2022-08-19T12:40:14;2.65;;;1.80;;
44810;SDS011;30526;52.184;4.476;2022-08-19T12:45:08;2.53;;;1.35;;
44810;SDS011;30526;52.184;4.476;2022-08-19T12:47:34;3.40;;;1.40;;
44810;SDS011;30526;52.184;4.476;2022-08-19T12:50:00;3.88;;;1.70;;
44810;SDS011;30526;52.184;4.476;2022-08-19T12:52:27;2.70;;;1.53;;
44810;SDS011;30526;52.184;4.476;2022-08-19T12:54:53;6.10;;;1.88;;
44810;SDS011;30526;52.184;4.476;2022-08-19T12:57:20;5.13;;;1.90;;
44810;SDS011;30526;52.184;4.476;2022-08-19T12:59:46;4.47;;;1.85;;
44810;SDS011;30526;52.184;4.476;2022-08-19T13:02:12;3.60;;;1.77;;
44810;SDS011;30526;52.184;4.476;2022-08-19T13:04:38;8.63;;;1.83;;
44810;SDS011;30526;52.184;4.476;2022-08-19T13:07:06;8.05;;;1.92;;
44810;SDS011;30526;52.184;4.476;2022-08-19T13:09:33;3.33;;;1.75;;
44810;SDS011;30526;52.184;4.476;2022-08-19T13:11:59;3.33;;;1.88;;
44810;SDS011;30526;52.184;4.476;2022-08-19T13:14:29;3.15;;;1.60;;
44810;SDS011;30526;52.184;4.476;2022-08-19T13:16:56;3.97;;;1.60;;
44810;SDS011;30526;52.184;4.476;2022-08-19T13:19:22;5.53;;;1.70;;
44810;SDS011;30526;52.184;4.476;2022-08-19T13:21:49;4.18;;;1.77;;
44810;SDS011;30526;52.184;4.476;2022-08-19T13:24:16;3.10;;;1.70;;
44810;SDS011;30526;52.184;4.476;2022-08-19T13:26:42;4.35;;;1.92;;
44810;SDS011;30526;52.184;4.476;2022-08-19T13:29:08;6.07;;;2.17;;
44810;SDS011;30526;52.184;4.476;2022-08-19T13:31:53;3.30;;;1.70;;
44810;SDS011;30526;52.184;4.476;2022-08-19T13:34:37;4.75;;;1.90;;
44810;SDS011;30526;52.184;4.476;2022-08-19T13:37:04;3.85;;;1.67;;
44810;SDS011;30526;52.184;4.476;2022-08-19T13:39:31;4.05;;;1.92;;
44810;SDS011;30526;52.184;4.476;2022-08-19T13:44:24;4.93;;;1.70;;
44810;SDS011;30526;52.184;4.476;2022-08-19T13:46:51;3.78;;;1.85;;
44810;SDS011;30526;52.184;4.476;2022-08-19T13:49:18;3.30;;;1.52;;
44810;SDS011;30526;52.184;4.476;2022-08-19T13:51:45;3.28;;;1.80;;
44810;SDS011;30526;52.184;4.476;2022-08-19T13:54:11;3.10;;;1.80;;
44810;SDS011;30526;52.184;4.476;2022-08-19T13:56:41;3.22;;;1.50;;
44810;SDS011;30526;52.184;4.476;2022-08-19T13:59:08;5.35;;;1.98;;
44810;SDS011;30526;52.184;4.476;2022-08-19T14:01:34;2.70;;;1.40;;
44810;SDS011;30526;52.184;4.476;2022-08-19T14:04:00;1.58;;;1.48;;
44810;SDS011;30526;52.184;4.476;2022-08-19T14:06:26;3.00;;;1.85;;
44810;SDS011;30526;52.184;4.476;2022-08-19T14:08:52;3.00;;;1.38;;
44810;SDS011;30526;52.184;4.476;2022-08-19T14:11:18;5.43;;;1.75;;
44810;SDS011;30526;52.184;4.476;2022-08-19T14:13:44;3.50;;;1.88;;
44810;SDS011;30526;52.184;4.476;2022-08-19T14:16:11;3.23;;;1.80;;
44810;SDS011;30526;52.184;4.476;2022-08-19T14:18:38;3.40;;;1.60;;
44810;SDS011;30526;52.184;4.476;2022-08-19T14:21:04;3.22;;;1.48;;
44810;SDS011;30526;52.184;4.476;2022-08-19T14:23:31;3.40;;;1.67;;
44810;SDS011;30526;52.184;4.476;2022-08-19T14:26:08;4.13;;;1.75;;
44810;SDS011;30526;52.184;4.476;2022-08-19T14:28:34;2.75;;;2.00;;
44810;SDS011;30526;52.184;4.476;2022-08-19T14:31:00;3.00;;;2.03;;
44810;SDS011;30526;52.184;4.476;2022-08-19T14:33:26;4.97;;;1.92;;
44810;SDS011;30526;52.184;4.476;2022-08-19T14:35:52;3.78;;;1.63;;
44810;SDS011;30526;52.184;4.476;2022-08-19T14:38:18;3.42;;;2.47;;
44810;SDS011;30526;52.184;4.476;2022-08-19T14:40:45;4.50;;;2.53;;
44810;SDS011;30526;52.184;4.476;2022-08-19T14:43:11;6.95;;;2.90;;
44810;SDS011;30526;52.184;4.476;2022-08-19T14:45:38;4.37;;;2.30;;
44810;SDS011;30526;52.184;4.476;2022-08-19T14:48:05;3.42;;;2.30;;
44810;SDS011;30526;52.184;4.476;2022-08-19T14:50:32;5.22;;;2.83;;
44810;SDS011;30526;52.184;4.476;2022-08-19T14:53:02;4.50;;;2.57;;
44810;SDS011;30526;52.184;4.476;2022-08-19T14:55:29;2.38;;;1.80;;
44810;SDS011;30526;52.184;4.476;2022-08-19T14:57:56;5.38;;;2.40;;
44810;SDS011;30526;52.184;4.476;2022-08-19T15:00:22;3.20;;;2.03;;
44810;SDS011;30526;52.184;4.476;2022-08-19T15:02:48;3.63;;;2.10;;
44810;SDS011;30526;52.184;4.476;2022-08-19T15:05:15;4.43;;;1.83;;
44810;SDS011;30526;52.184;4.476;2022-08-19T15:07:41;3.70;;;2.20;;